createdAt,value
2018-07-20T00:00:16.341Z,74.28
2018-07-20T00:02:45.679Z,74.88
2018-07-20T00:05:15.009Z,74.98
2018-07-20T00:07:44.401Z,74.73
2018-07-20T00:10:13.723Z,75.25
2018-07-20T00:12:43.064Z,75.07
2018-07-20T00:15:12.371Z,74.70
2018-07-20T00:17:41.700Z,75.00
2018-07-20T00:20:11.011Z,75.12
2018-07-20T00:22:40.336Z,75.56
2018-07-20T00:25:09.675Z,77.21
2018-07-20T00:27:39.032Z,77.24
2018-07-20T00:30:08.373Z,76.53
2018-07-20T00:32:37.732Z,76.85
2018-07-20T00:35:07.084Z,76.22
2018-07-20T00:37:36.525Z,76.14
2018-07-20T00:40:06.024Z,76.05
2018-07-20T00:42:35.062Z,76.25
2018-07-20T00:45:04.431Z,76.38
2018-07-20T00:47:33.740Z,76.33
2018-07-20T00:50:03.091Z,77.28
2018-07-20T00:52:32.397Z,76.91
2018-07-20T00:55:01.700Z,77.15
2018-07-20T00:57:31.072Z,77.21
2018-07-20T01:00:00.374Z,78.37
2018-07-20T01:02:29.700Z,78.10
2018-07-20T01:04:59.028Z,78.08
2018-07-20T01:07:28.347Z,78.05
2018-07-20T01:09:57.687Z,78.06
2018-07-20T01:12:27.009Z,78.66
2018-07-20T01:14:56.332Z,78.26
2018-07-20T01:17:25.655Z,78.48
2018-07-20T01:19:54.986Z,78.32
2018-07-20T01:22:24.344Z,79.05
2018-07-20T01:24:53.707Z,79.03
2018-07-20T01:27:23.044Z,79.03
2018-07-20T01:29:52.367Z,78.20
2018-07-20T01:32:21.687Z,79.10
2018-07-20T01:34:51.088Z,78.61
2018-07-20T01:37:20.384Z,79.66
2018-07-20T01:39:49.743Z,79.67
2018-07-20T01:42:19.089Z,79.30
2018-07-20T01:44:48.432Z,80.20
2018-07-20T01:47:17.811Z,79.91
2018-07-20T01:49:47.161Z,79.68
2018-07-20T01:52:16.514Z,80.30
2018-07-20T01:54:45.926Z,79.86
2018-07-20T01:57:15.243Z,79.98
2018-07-20T01:59:44.597Z,79.87
2018-07-20T02:02:13.928Z,80.59
2018-07-20T02:04:43.252Z,79.98
2018-07-20T02:07:12.607Z,80.09
2018-07-20T02:09:41.919Z,79.71
2018-07-20T02:12:11.310Z,80.61
2018-07-20T02:14:40.716Z,80.10
2018-07-20T02:17:10.088Z,81.02
2018-07-20T02:19:39.428Z,81.01
2018-07-20T02:22:08.741Z,81.48
2018-07-20T02:24:38.087Z,82.22
2018-07-20T02:27:07.404Z,81.36
2018-07-20T02:29:36.873Z,81.86
2018-07-20T02:32:06.180Z,81.42
2018-07-20T02:34:35.495Z,81.10
2018-07-20T02:37:04.899Z,81.64
2018-07-20T02:39:34.216Z,81.64
2018-07-20T02:42:03.540Z,82.49
2018-07-20T02:44:32.900Z,82.57
2018-07-20T02:47:02.312Z,82.57
2018-07-20T02:49:31.666Z,81.90
2018-07-20T02:52:00.998Z,81.72
2018-07-20T02:54:30.325Z,82.62
2018-07-20T02:56:59.636Z,81.76
2018-07-20T02:59:28.996Z,82.41
2018-07-20T03:01:58.324Z,82.92
2018-07-20T03:04:27.664Z,82.17
2018-07-20T03:06:57.011Z,81.81
2018-07-20T03:09:26.352Z,82.22
2018-07-20T03:11:55.688Z,82.79
2018-07-20T03:14:25.002Z,82.71
2018-07-20T03:16:54.454Z,83.55
2018-07-20T03:19:23.760Z,83.37
2018-07-20T03:21:53.072Z,82.71
2018-07-20T03:24:22.400Z,82.47
2018-07-20T03:26:51.709Z,82.86
2018-07-20T03:29:21.045Z,82.61
2018-07-20T03:31:50.368Z,82.47
2018-07-20T03:34:19.681Z,83.17
2018-07-20T03:36:49.172Z,82.65
2018-07-20T03:39:18.480Z,82.31
2018-07-20T03:41:47.800Z,82.75
2018-07-20T03:44:17.224Z,82.88
2018-07-20T03:46:46.609Z,81.66
2018-07-20T03:49:15.963Z,81.53
2018-07-20T03:51:45.272Z,82.60
2018-07-20T03:54:14.679Z,82.17
2018-07-20T03:56:43.996Z,82.68
2018-07-20T03:59:13.311Z,82.60
2018-07-20T04:01:42.624Z,83.07
2018-07-20T04:04:11.982Z,83.02
2018-07-20T04:06:42.536Z,82.96
2018-07-20T04:09:12.216Z,83.17
2018-07-20T04:11:42.344Z,83.15
2018-07-20T04:14:11.668Z,82.95
2018-07-20T04:16:40.999Z,82.67
2018-07-20T04:19:10.345Z,83.06
2018-07-20T04:21:39.783Z,83.16
2018-07-20T04:24:09.113Z,83.95
2018-07-20T04:26:38.421Z,83.35
2018-07-20T04:29:07.732Z,83.24
2018-07-20T04:31:37.060Z,83.06
2018-07-20T04:34:06.432Z,83.42
2018-07-20T04:36:35.748Z,82.66
2018-07-20T04:39:10.007Z,82.12
2018-07-20T04:41:39.355Z,81.46
2018-07-20T04:44:08.672Z,81.76
2018-07-20T04:46:38.181Z,81.86
2018-07-20T04:49:07.881Z,81.09
2018-07-20T04:51:37.256Z,80.92
2018-07-20T04:54:06.615Z,81.50
2018-07-20T04:56:35.926Z,81.77
2018-07-20T04:59:05.292Z,81.66
2018-07-20T05:01:34.613Z,81.05
2018-07-20T05:04:03.923Z,81.30
2018-07-20T05:06:33.253Z,81.43
2018-07-20T05:09:02.759Z,81.26
2018-07-20T05:11:32.157Z,81.56
2018-07-20T05:14:01.397Z,81.44
2018-07-20T05:16:30.708Z,80.54
2018-07-20T05:19:00.044Z,80.76
2018-07-20T05:21:29.376Z,80.13
2018-07-20T05:23:58.768Z,79.24
2018-07-20T05:26:28.083Z,80.42
2018-07-20T05:28:57.423Z,79.67
2018-07-20T05:31:26.771Z,78.45
2018-07-20T05:33:56.128Z,78.22
2018-07-20T05:36:25.479Z,77.12
2018-07-20T05:38:54.840Z,77.89
2018-07-20T05:41:24.222Z,77.15
2018-07-20T05:43:53.639Z,77.17
2018-07-20T05:46:22.871Z,76.10
2018-07-20T05:48:52.219Z,75.01
2018-07-20T05:51:21.556Z,74.35
2018-07-20T05:53:50.907Z,73.85
2018-07-20T05:56:20.207Z,74.57
2018-07-20T05:58:49.566Z,75.03
2018-07-20T06:01:19.364Z,73.43
2018-07-20T06:03:48.777Z,74.91
2018-07-20T06:06:18.124Z,73.99
2018-07-20T06:08:47.599Z,73.13
2018-07-20T06:11:16.984Z,73.59
2018-07-20T06:13:46.791Z,71.92
2018-07-20T06:16:16.374Z,71.56
2018-07-20T06:18:45.717Z,72.41
2018-07-20T06:21:15.028Z,70.57
2018-07-20T06:23:44.384Z,71.67
2018-07-20T06:26:13.717Z,70.33
2018-07-20T06:28:43.043Z,70.66
2018-07-20T06:31:12.400Z,70.56
2018-07-20T06:33:41.743Z,70.41
2018-07-20T06:36:11.069Z,71.07
2018-07-20T06:38:40.393Z,69.33
2018-07-20T06:41:09.793Z,69.92
2018-07-20T06:43:39.125Z,69.44
2018-07-20T06:46:08.715Z,67.83
2018-07-20T06:48:38.055Z,67.68
2018-07-20T06:51:07.475Z,67.74
2018-07-20T06:53:36.856Z,68.20
2018-07-20T06:56:06.204Z,68.17
2018-07-20T06:58:35.624Z,67.65
2018-07-20T07:01:04.955Z,66.96
2018-07-20T07:03:34.324Z,67.64
2018-07-20T07:06:03.672Z,66.58
2018-07-20T07:08:33.000Z,66.29
2018-07-20T07:11:02.324Z,64.83
2018-07-20T07:13:31.656Z,64.14
2018-07-20T07:16:01.097Z,64.50
2018-07-20T07:18:30.417Z,64.92
2018-07-20T07:20:59.752Z,64.73
2018-07-20T07:23:29.068Z,63.17
2018-07-20T07:25:58.484Z,62.55
2018-07-20T07:28:27.891Z,63.13
2018-07-20T07:30:57.276Z,63.86
2018-07-20T07:33:26.832Z,63.36
2018-07-20T07:35:56.271Z,60.36
2018-07-20T07:38:25.743Z,61.12
2018-07-20T07:40:55.105Z,60.73
2018-07-20T07:43:24.453Z,60.46
2018-07-20T07:45:53.772Z,60.15
2018-07-20T07:48:23.072Z,58.61
2018-07-20T07:50:52.420Z,56.64
2018-07-20T07:53:21.739Z,55.92
2018-07-20T07:55:51.084Z,50.53
2018-07-20T07:58:20.424Z,51.85
2018-07-20T08:00:49.739Z,50.10
2018-07-20T08:03:19.065Z,49.81
2018-07-20T08:05:48.405Z,49.57
2018-07-20T08:08:17.757Z,50.40
2018-07-20T08:10:47.096Z,50.49
2018-07-20T08:13:16.421Z,50.71
2018-07-20T08:15:45.885Z,51.07
2018-07-20T08:18:15.176Z,50.15
2018-07-20T08:20:44.512Z,51.23
2018-07-20T08:23:13.853Z,51.00
2018-07-20T08:25:43.172Z,49.73
2018-07-20T08:28:12.564Z,50.03
2018-07-20T08:30:41.900Z,49.28
2018-07-20T08:33:11.239Z,47.87
2018-07-20T08:35:40.576Z,46.91
2018-07-20T08:38:09.936Z,48.66
2018-07-20T08:40:39.260Z,47.97
2018-07-20T08:43:08.330Z,49.92
2018-07-20T08:45:37.660Z,48.97
2018-07-20T08:48:07.019Z,49.01
2018-07-20T08:50:36.351Z,48.65
2018-07-20T08:53:05.957Z,46.96
2018-07-20T08:55:35.276Z,46.37
2018-07-20T08:58:04.619Z,48.09
2018-07-20T09:00:33.962Z,47.05
2018-07-20T09:03:03.285Z,47.00
2018-07-20T09:05:32.609Z,46.54
2018-07-20T09:08:01.985Z,45.75
2018-07-20T09:10:31.305Z,45.32
2018-07-20T09:13:00.643Z,47.27
2018-07-20T09:15:30.039Z,48.01
2018-07-20T09:17:59.406Z,47.91
2018-07-20T09:20:28.758Z,47.34
2018-07-20T09:22:58.121Z,46.23
2018-07-20T09:25:27.467Z,46.40
2018-07-20T09:27:56.785Z,46.07
2018-07-20T09:30:26.120Z,46.00
2018-07-20T09:32:55.437Z,45.89
2018-07-20T09:35:24.767Z,47.00
2018-07-20T09:37:54.214Z,46.24
2018-07-20T09:40:23.515Z,46.21
2018-07-20T09:42:52.858Z,45.65
2018-07-20T09:45:22.160Z,44.39
2018-07-20T09:47:51.493Z,45.41
2018-07-20T09:50:20.844Z,43.70
2018-07-20T09:52:50.221Z,44.15
2018-07-20T09:55:19.554Z,43.80
2018-07-20T09:57:48.871Z,43.98
2018-07-20T10:00:23.074Z,40.81
2018-07-20T10:02:52.456Z,41.12
2018-07-20T10:05:21.804Z,38.24
2018-07-20T10:07:51.134Z,40.14
2018-07-20T10:10:20.456Z,39.73
2018-07-20T10:12:49.818Z,39.27
2018-07-20T10:15:19.144Z,39.28
2018-07-20T10:17:48.492Z,39.13
2018-07-20T10:20:17.804Z,40.43
2018-07-20T10:22:47.131Z,40.71
2018-07-20T10:25:16.459Z,40.83
2018-07-20T10:27:45.835Z,40.60
2018-07-20T10:30:15.123Z,40.48
2018-07-20T10:32:44.432Z,40.78
2018-07-20T10:35:13.486Z,38.07
2018-07-20T10:37:42.808Z,39.42
2018-07-20T10:40:12.139Z,37.77
2018-07-20T10:42:41.471Z,38.65
2018-07-20T10:45:11.267Z,37.10
2018-07-20T10:47:40.583Z,38.32
2018-07-20T10:50:09.924Z,39.13
2018-07-20T10:52:39.262Z,37.66
2018-07-20T10:55:08.588Z,38.92
2018-07-20T10:57:38.799Z,35.91
2018-07-20T11:00:08.147Z,36.42
2018-07-20T11:02:37.497Z,37.70
2018-07-20T11:05:06.867Z,36.39
2018-07-20T11:07:36.183Z,38.14
2018-07-20T11:10:05.807Z,37.88
2018-07-20T11:12:35.130Z,38.10
2018-07-20T11:15:05.174Z,36.17
2018-07-20T11:17:34.520Z,35.95
2018-07-20T11:20:04.019Z,36.86
2018-07-20T11:22:33.387Z,37.93
2018-07-20T11:25:02.721Z,38.46
2018-07-20T11:27:32.138Z,37.28
2018-07-20T11:30:01.444Z,37.85
2018-07-20T11:32:30.840Z,36.66
2018-07-20T11:35:00.210Z,38.63
2018-07-20T11:37:29.540Z,37.38
2018-07-20T11:39:58.948Z,38.91
2018-07-20T11:42:28.339Z,38.09
2018-07-20T11:44:57.686Z,37.78
2018-07-20T11:47:27.015Z,37.97
2018-07-20T11:49:56.323Z,37.44
2018-07-20T11:52:25.676Z,37.84
2018-07-20T11:54:55.063Z,36.33
2018-07-20T11:57:24.392Z,36.73
2018-07-20T11:59:53.704Z,36.54
2018-07-20T12:02:23.029Z,35.37
2018-07-20T12:04:52.352Z,35.98
2018-07-20T12:07:21.721Z,36.32
2018-07-20T12:09:51.043Z,34.01
2018-07-20T12:12:20.361Z,32.78
2018-07-20T12:14:49.688Z,32.58
2018-07-20T12:17:19.035Z,34.10
2018-07-20T12:19:48.348Z,34.41
2018-07-20T12:22:17.869Z,33.95
2018-07-20T12:24:47.205Z,34.76
2018-07-20T12:27:16.531Z,35.66
2018-07-20T12:29:46.103Z,34.54
2018-07-20T12:32:15.439Z,36.44
2018-07-20T12:34:44.744Z,35.02
2018-07-20T12:37:14.082Z,31.74
2018-07-20T12:39:43.431Z,33.09
2018-07-20T12:42:12.765Z,33.54
2018-07-20T12:44:42.089Z,34.83
2018-07-20T12:47:11.512Z,34.14
2018-07-20T12:49:40.837Z,33.59
2018-07-20T12:52:10.186Z,34.01
2018-07-20T12:54:39.540Z,32.36
2018-07-20T12:57:09.311Z,30.74
2018-07-20T12:59:38.648Z,30.00
2018-07-20T13:02:08.267Z,30.79
2018-07-20T13:04:37.592Z,30.56
2018-07-20T13:07:06.663Z,30.93
2018-07-20T13:09:36.020Z,32.86
2018-07-20T13:12:05.501Z,30.53
2018-07-20T13:14:34.696Z,29.15
2018-07-20T13:17:04.080Z,32.69
2018-07-20T13:19:33.570Z,32.39
2018-07-20T13:22:02.903Z,31.17
2018-07-20T13:24:31.967Z,30.02
2018-07-20T13:27:01.460Z,30.52
2018-07-20T13:29:30.815Z,29.87
2018-07-20T13:32:00.215Z,32.09
2018-07-20T13:34:29.539Z,31.25
2018-07-20T13:36:58.860Z,30.87
2018-07-20T13:39:28.203Z,30.96
2018-07-20T13:41:57.576Z,30.23
2018-07-20T13:44:26.901Z,28.80
2018-07-20T13:46:56.273Z,28.30
2018-07-20T13:49:26.591Z,28.82
2018-07-20T13:51:55.968Z,28.46
2018-07-20T13:54:25.279Z,29.54
2018-07-20T13:56:54.634Z,27.20
2018-07-20T13:59:24.055Z,26.60
2018-07-20T14:01:53.383Z,26.32
2018-07-20T14:04:22.713Z,26.13
2018-07-20T14:06:52.074Z,26.21
2018-07-20T14:09:21.383Z,26.95
2018-07-20T14:11:50.717Z,28.65
2018-07-20T14:14:20.156Z,26.51
2018-07-20T14:16:49.707Z,25.28
2018-07-20T14:19:18.992Z,25.51
2018-07-20T14:21:48.594Z,27.29
2018-07-20T14:24:17.901Z,27.50
2018-07-20T14:26:47.392Z,27.57
2018-07-20T14:29:16.708Z,27.79
2018-07-20T14:31:46.101Z,28.81
2018-07-20T14:34:22.100Z,28.36
2018-07-20T14:36:51.441Z,26.86
2018-07-20T14:39:20.765Z,26.34
2018-07-20T14:41:50.308Z,26.15
2018-07-20T14:44:19.637Z,27.78
2018-07-20T14:46:49.162Z,29.38
2018-07-20T14:49:18.499Z,28.08
2018-07-20T14:51:47.859Z,29.98
2018-07-20T14:54:17.323Z,28.15
2018-07-20T14:56:46.741Z,27.24
2018-07-20T14:59:16.074Z,26.29
2018-07-20T15:01:45.435Z,25.01
2018-07-20T15:04:14.748Z,26.20
2018-07-20T15:06:44.089Z,25.36
2018-07-20T15:09:13.522Z,24.31
2018-07-20T15:11:42.871Z,24.62
2018-07-20T15:14:12.175Z,23.65
2018-07-20T15:16:41.563Z,23.61
2018-07-20T15:19:10.876Z,23.30
2018-07-20T15:21:39.934Z,25.23
2018-07-20T15:24:09.283Z,24.56
2018-07-20T15:26:38.608Z,23.91
2018-07-20T15:29:07.924Z,23.93
2018-07-20T15:31:37.263Z,24.61
2018-07-20T15:34:06.664Z,23.40
2018-07-20T15:36:36.005Z,23.70
2018-07-20T15:39:09.399Z,25.46
2018-07-20T15:41:38.739Z,24.54
2018-07-20T15:44:08.108Z,25.19
2018-07-20T15:46:37.531Z,26.06
2018-07-20T15:49:06.845Z,25.64
2018-07-20T15:53:35.050Z,25.63
2018-07-20T15:54:05.607Z,24.17
2018-07-20T15:56:34.925Z,24.38
2018-07-20T15:59:04.317Z,24.78
2018-07-20T16:01:33.656Z,24.63
2018-07-20T16:04:02.984Z,25.87
2018-07-20T16:06:32.356Z,25.01
2018-07-20T16:09:01.696Z,26.14
2018-07-20T16:11:31.089Z,24.20
2018-07-20T16:14:00.409Z,25.75
2018-07-20T16:16:29.740Z,26.13
2018-07-20T16:18:59.051Z,26.58
2018-07-20T16:21:28.400Z,25.11
2018-07-20T16:23:57.744Z,25.64
2018-07-20T16:26:27.060Z,25.11
2018-07-20T16:28:56.404Z,24.84
2018-07-20T16:31:25.721Z,24.47
2018-07-20T16:33:55.060Z,24.29
2018-07-20T16:36:24.457Z,23.98
2018-07-20T16:38:53.800Z,24.82
2018-07-20T16:41:23.150Z,25.40
2018-07-20T16:43:52.479Z,25.54
2018-07-20T16:46:21.815Z,28.65
2018-07-20T16:48:51.156Z,31.51
2018-07-20T16:51:20.549Z,34.59
2018-07-20T16:53:49.853Z,29.21
2018-07-20T16:56:19.168Z,28.63
2018-07-20T16:58:48.540Z,33.45
2018-07-20T17:01:17.849Z,34.28
2018-07-20T17:03:47.169Z,35.80
2018-07-20T17:06:16.508Z,33.81
2018-07-20T17:08:45.842Z,37.83
2018-07-20T17:11:15.159Z,38.67
2018-07-20T17:13:44.553Z,39.20
2018-07-20T17:16:13.905Z,40.12
2018-07-20T17:18:43.264Z,40.27
2018-07-20T17:21:12.578Z,39.94
2018-07-20T17:23:41.897Z,41.45
2018-07-20T17:26:11.244Z,42.39
2018-07-20T17:28:40.596Z,42.01
2018-07-20T17:31:09.900Z,42.85
2018-07-20T17:33:39.281Z,43.54
2018-07-20T17:36:08.590Z,44.00
2018-07-20T17:38:37.917Z,43.39
2018-07-20T17:41:07.558Z,41.05
2018-07-20T17:43:36.877Z,38.73
2018-07-20T17:46:06.620Z,36.14
2018-07-20T17:48:36.036Z,35.33
2018-07-20T17:51:05.412Z,34.43
2018-07-20T17:53:34.828Z,32.93
2018-07-20T17:56:04.200Z,33.07
2018-07-20T17:58:33.578Z,33.75
2018-07-20T18:01:02.748Z,35.95
2018-07-20T18:03:32.056Z,36.42
2018-07-20T18:06:01.422Z,35.72
2018-07-20T18:08:30.797Z,37.80
2018-07-20T18:11:00.135Z,38.85
2018-07-20T18:13:29.757Z,41.54
2018-07-20T18:15:59.076Z,42.61
2018-07-20T18:18:28.427Z,44.38
2018-07-20T18:20:57.769Z,45.10
2018-07-20T18:23:27.177Z,46.33
2018-07-20T18:25:56.498Z,48.13
2018-07-20T18:28:25.848Z,48.06
2018-07-20T18:30:55.179Z,49.32
2018-07-20T18:33:24.529Z,50.54
2018-07-20T18:35:53.881Z,49.45
2018-07-20T18:38:23.201Z,49.95
2018-07-20T18:40:52.274Z,50.52
2018-07-20T18:43:21.628Z,51.12
2018-07-20T18:45:50.956Z,49.63
2018-07-20T18:48:20.259Z,48.95
2018-07-20T18:50:49.580Z,49.02
2018-07-20T18:53:19.002Z,50.21
2018-07-20T18:55:48.329Z,49.67
2018-07-20T18:58:17.675Z,50.04
2018-07-20T19:00:47.049Z,49.64
2018-07-20T19:03:16.495Z,49.21
2018-07-20T19:05:45.840Z,49.71
2018-07-20T19:08:15.175Z,50.48
2018-07-20T19:10:44.485Z,50.24
2018-07-20T19:13:13.820Z,49.43
2018-07-20T19:15:43.148Z,51.14
2018-07-20T19:18:12.465Z,52.91
2018-07-20T19:20:41.827Z,53.04
2018-07-20T19:23:11.164Z,53.86
2018-07-20T19:25:40.484Z,54.71
2018-07-20T19:28:09.827Z,53.77
2018-07-20T19:30:39.135Z,55.47
2018-07-20T19:33:08.569Z,55.18
2018-07-20T19:35:37.877Z,56.75
2018-07-20T19:38:07.211Z,56.78
2018-07-20T19:40:36.516Z,56.94
2018-07-20T19:43:05.867Z,56.10
2018-07-20T19:45:35.216Z,56.09
2018-07-20T19:48:04.759Z,54.61
2018-07-20T19:50:34.111Z,52.97
2018-07-20T19:53:03.480Z,53.84
2018-07-20T19:55:32.810Z,54.64
2018-07-20T19:58:02.112Z,55.92
2018-07-20T20:00:31.495Z,57.25
2018-07-20T20:03:00.877Z,58.01
2018-07-20T20:05:30.191Z,56.97
2018-07-20T20:07:59.538Z,57.43
2018-07-20T20:10:28.862Z,57.75
2018-07-20T20:12:58.535Z,55.56
2018-07-20T20:15:27.936Z,54.40
2018-07-20T20:17:57.348Z,54.85
2018-07-20T20:20:26.737Z,54.90
2018-07-20T20:22:56.120Z,56.41
2018-07-20T20:25:25.443Z,58.00
2018-07-20T20:27:58.499Z,58.32
2018-07-20T20:30:27.875Z,57.36
2018-07-20T20:32:57.392Z,57.18
2018-07-20T20:35:26.752Z,57.41
2018-07-20T20:37:56.076Z,58.68
2018-07-20T20:40:25.419Z,56.70
2018-07-20T20:42:54.755Z,57.01
2018-07-20T20:45:24.085Z,58.56
2018-07-20T20:47:53.419Z,58.21
2018-07-20T20:50:22.743Z,58.67
2018-07-20T20:52:52.477Z,58.78
2018-07-20T20:55:21.949Z,58.75
2018-07-20T20:57:51.304Z,60.07
2018-07-20T21:00:20.629Z,60.72
2018-07-20T21:02:49.947Z,60.09
2018-07-20T21:05:19.353Z,61.05
2018-07-20T21:07:48.821Z,60.84
2018-07-20T21:10:18.168Z,60.59
2018-07-20T21:12:47.500Z,60.97
2018-07-20T21:15:16.807Z,60.54
2018-07-20T21:17:46.153Z,60.94
2018-07-20T21:20:15.483Z,60.50
2018-07-20T21:22:44.802Z,59.60
2018-07-20T21:25:14.139Z,60.54
2018-07-20T21:27:43.458Z,60.96
2018-07-20T21:30:12.845Z,62.01
2018-07-20T21:32:42.196Z,61.87
2018-07-20T21:35:11.504Z,60.24
2018-07-20T21:37:40.841Z,61.11
2018-07-20T21:40:10.156Z,58.92
2018-07-20T21:42:39.480Z,58.43
2018-07-20T21:45:08.827Z,59.54
2018-07-20T21:47:38.119Z,59.66
2018-07-20T21:50:07.440Z,57.91
2018-07-20T21:52:36.853Z,58.24
2018-07-20T21:55:06.219Z,61.34
2018-07-20T21:57:35.547Z,62.17
2018-07-20T22:00:07.052Z,62.31
2018-07-20T22:02:36.388Z,62.80
2018-07-20T22:05:05.720Z,64.07
2018-07-20T22:07:35.073Z,63.56
2018-07-20T22:10:04.456Z,63.34
2018-07-20T22:12:33.999Z,64.24
2018-07-20T22:15:03.371Z,63.42
2018-07-20T22:17:32.699Z,63.11
2018-07-20T22:20:02.044Z,62.31
2018-07-20T22:22:31.367Z,62.41
2018-07-20T22:25:00.760Z,63.59
2018-07-20T22:27:30.099Z,62.26
2018-07-20T22:29:59.497Z,63.09
2018-07-20T22:32:28.764Z,62.87
2018-07-20T22:34:58.071Z,64.04
2018-07-20T22:37:27.396Z,64.96
2018-07-20T22:39:56.712Z,65.04
2018-07-20T22:42:26.034Z,65.32
2018-07-20T22:44:55.360Z,64.44
2018-07-20T22:47:24.668Z,64.71
2018-07-20T22:49:53.991Z,64.78
2018-07-20T22:52:23.298Z,64.56
2018-07-20T22:54:52.615Z,65.20
2018-07-20T22:57:21.953Z,64.93
2018-07-20T22:59:51.267Z,65.46
2018-07-20T23:02:20.617Z,65.31
2018-07-20T23:04:49.940Z,65.21
2018-07-20T23:07:19.260Z,63.25
2018-07-20T23:09:48.588Z,63.65
2018-07-20T23:12:17.949Z,64.65
2018-07-20T23:14:47.260Z,65.67
2018-07-20T23:17:16.575Z,65.61
2018-07-20T23:19:45.959Z,62.44
2018-07-20T23:22:15.278Z,62.80
2018-07-20T23:24:44.677Z,64.70
2018-07-20T23:27:14.013Z,65.30
2018-07-20T23:29:43.323Z,64.59
2018-07-20T23:32:13.520Z,63.92
2018-07-20T23:34:42.841Z,62.94
2018-07-20T23:37:12.159Z,63.74
2018-07-20T23:39:41.496Z,64.75
2018-07-20T23:42:10.818Z,64.99
2018-07-20T23:44:40.139Z,65.23
2018-07-20T23:47:09.572Z,65.27
2018-07-20T23:49:38.944Z,66.13
2018-07-20T23:52:08.261Z,64.37
2018-07-20T23:54:37.697Z,65.35
2018-07-20T23:57:06.997Z,63.29
2018-07-20T23:59:36.356Z,63.61
